Time;durP1;ratioP1;P1;durP2;ratioP2;P2;SDS_P1;SDS_P2;PMS_P1;PMS_P2;Temp;Humidity;BMP_temperature;BMP_pressure;BME280_temperature;BME280_humidity;BME280_pressure;Samples;Min_cycle;Max_cycle;Signal;HPM_P1;HPM_P2
2021/05/17 00:00:34;;;;;;;2.80;0.90;;;;;;;11.47;69.83;95532.34;5082228;28;20431;-68
2021/05/17 00:03:01;;;;;;;1.23;0.80;;;;;;;12.21;67.57;95537.69;5094422;28;20420;-68
2021/05/17 00:05:29;;;;;;;2.50;0.73;;;;;;;12.36;66.67;95532.22;5093016;28;20193;-68
2021/05/17 00:07:55;;;;;;;1.13;0.77;;;;;;;12.37;66.09;95542.50;5094753;28;20474;-69
2021/05/17 00:10:21;;;;;;;1.40;0.70;;;;;;;12.38;65.83;95545.94;5092281;28;20933;-69
2021/05/17 00:12:47;;;;;;;4.30;0.90;;;;;;;12.27;66.19;95544.72;5094324;28;20269;-69
2021/05/17 00:15:16;;;;;;;1.53;0.80;;;;;;;12.09;67.32;95545.34;5094666;28;20523;-68
2021/05/17 00:17:42;;;;;;;2.00;0.80;;;;;;;12.08;67.06;95552.44;5093277;28;20186;-69
2021/05/17 00:20:10;;;;;;;1.20;0.80;;;;;;;12.40;66.08;95557.06;5075535;28;20510;-68
2021/05/17 00:22:35;;;;;;;2.30;0.90;;;;;;;12.34;65.83;95548.19;5093855;28;20431;-68
2021/05/17 00:25:02;;;;;;;2.33;0.90;;;;;;;12.17;66.93;95547.75;5090396;28;20437;-67
2021/05/17 00:27:28;;;;;;;9.03;1.00;;;;;;;12.23;67.40;95551.41;5090934;28;20590;-68
2021/05/17 00:29:54;;;;;;;8.83;1.10;;;;;;;12.23;67.29;95551.41;5089529;28;20450;-69
2021/05/17 00:32:20;;;;;;;1.67;0.70;;;;;;;12.13;68.17;95542.13;5094936;28;20644;-68
2021/05/17 00:34:46;;;;;;;1.20;0.77;;;;;;;12.36;66.88;95548.75;5086265;28;20429;-68
2021/05/17 00:37:12;;;;;;;1.10;0.70;;;;;;;12.57;66.40;95552.19;5094012;28;20185;-68
2021/05/17 00:39:38;;;;;;;2.20;0.70;;;;;;;12.71;65.90;95542.44;5092310;28;20305;-69
2021/05/17 00:42:05;;;;;;;0.93;0.70;;;;;;;12.74;65.50;95542.03;5090036;28;20416;-70
2021/05/17 00:44:31;;;;;;;1.27;0.83;;;;;;;12.28;66.73;95541.09;5091825;28;20420;-68
2021/05/17 00:46:56;;;;;;;1.50;0.77;;;;;;;12.57;66.08;95546.94;5091836;28;20423;-67
2021/05/17 00:49:22;;;;;;;2.77;0.70;;;;;;;12.48;66.27;95542.88;5093990;28;20446;-68
2021/05/17 00:51:48;;;;;;;4.10;0.80;;;;;;;12.35;67.07;95548.97;5092661;28;20182;-67
2021/05/17 00:54:14;;;;;;;1.10;1.00;;;;;;;12.37;66.71;95545.13;5072857;28;20207;-67
2021/05/17 00:56:41;;;;;;;1.37;0.87;;;;;;;12.19;67.37;95547.56;5087774;28;20185;-69
2021/05/17 00:59:07;;;;;;;2.07;0.67;;;;;;;12.03;67.09;95540.94;5093929;28;20577;-69
2021/05/17 01:01:33;;;;;;;1.10;0.67;;;;;;;11.98;67.23;95544.13;5093702;28;20424;-68
2021/05/17 01:03:59;;;;;;;2.07;0.90;;;;;;;12.21;66.84;95545.56;5091421;28;20246;-69
2021/05/17 01:06:24;;;;;;;4.00;0.90;;;;;;;12.29;66.15;95542.72;5093665;28;20192;-69
2021/05/17 01:09:07;;;;;;;8.53;0.97;;;;;;;12.38;66.11;95549.38;5093465;28;20210;-69
2021/05/17 01:11:34;;;;;;;2.30;0.93;;;;;;;11.76;68.23;95539.03;5091499;28;20423;-67
2021/05/17 01:14:03;;;;;;;2.50;0.90;;;;;;;12.02;67.33;95537.47;5076608;28;21016;-69
2021/05/17 01:16:31;;;;;;;1.40;0.90;;;;;;;12.13;67.47;95536.06;5084976;28;20435;-67
2021/05/17 01:18:57;;;;;;;2.30;0.77;;;;;;;12.15;66.71;95534.06;5091632;28;20440;-69
2021/05/17 01:21:26;;;;;;;2.13;1.00;;;;;;;11.71;68.75;95538.84;5085389;28;20456;-68
2021/05/17 01:23:56;;;;;;;1.93;0.70;;;;;;;11.64;68.89;95535.41;5084095;28;20219;-68
2021/05/17 01:26:23;;;;;;;1.67;0.97;;;;;;;11.65;69.22;95537.00;5075899;28;20869;-68
2021/05/17 01:28:52;;;;;;;4.53;1.43;;;;;;;11.37;70.30;95525.69;5080556;28;20455;-67
2021/05/17 01:31:18;;;;;;;2.50;0.77;;;;;;;11.77;68.98;95530.16;5074796;28;20420;-67
2021/05/17 01:33:45;;;;;;;3.03;0.83;;;;;;;11.79;67.85;95530.78;5085118;28;20474;-66
2021/05/17 01:36:12;;;;;;;1.00;0.70;;;;;;;11.26;69.86;95538.53;5091581;28;20189;-69
2021/05/17 01:38:40;;;;;;;2.30;0.80;;;;;;;11.32;70.23;95529.91;5091635;28;20881;-68
2021/05/17 01:41:12;;;;;;;1.77;0.63;;;;;;;11.90;68.22;95534.63;5090316;28;20424;-69
2021/05/17 01:43:44;;;;;;;1.37;0.80;;;;;;;11.90;67.79;95531.19;5092376;28;20837;-67
2021/05/17 01:46:15;;;;;;;2.43;1.00;;;;;;;11.34;69.10;95526.06;5092453;28;20423;-70
2021/05/17 01:48:42;;;;;;;1.40;0.83;;;;;;;11.65;68.70;95535.22;5092819;28;20454;-68
2021/05/17 01:51:10;;;;;;;2.53;0.70;;;;;;;11.93;67.22;95541.28;5094352;28;20420;-67
2021/05/17 01:53:36;;;;;;;0.93;0.60;;;;;;;11.83;67.83;95537.25;5102253;28;20470;-68
2021/05/17 01:56:04;;;;;;;1.00;0.70;;;;;;;11.50;68.87;95538.00;5070373;28;20448;-68
2021/05/17 01:58:32;;;;;;;1.13;0.80;;;;;;;11.42;69.45;95532.94;5081311;28;20443;-67
2021/05/17 02:00:58;;;;;;;1.83;0.93;;;;;;;11.05;71.00;95540.28;5092466;28;20423;-67
2021/05/17 02:03:24;;;;;;;1.17;0.60;;;;;;;11.52;69.23;95535.19;5092040;28;20472;-68
2021/05/17 02:05:50;;;;;;;2.27;1.00;;;;;;;11.20;69.98;95529.66;5094065;28;20787;-67
2021/05/17 02:08:16;;;;;;;1.70;1.00;;;;;;;11.38;68.94;95536.97;5099164;28;20446;-68
2021/05/17 02:10:44;;;;;;;1.20;0.80;;;;;;;11.51;67.92;95533.56;5096331;28;20687;-69
2021/05/17 02:13:16;;;;;;;2.40;1.10;;;;;;;11.57;67.92;95534.59;5084979;28;20456;-68
2021/05/17 02:15:43;;;;;;;1.73;1.00;;;;;;;11.27;68.87;95522.63;5082664;28;20418;-69
2021/05/17 02:18:09;;;;;;;2.57;0.80;;;;;;;11.73;67.20;95528.94;5092366;28;20542;-69
2021/05/17 02:20:37;;;;;;;1.87;1.00;;;;;;;11.58;67.53;95528.34;5092492;28;20435;-68
2021/05/17 02:23:05;;;;;;;1.50;0.70;;;;;;;11.52;67.62;95522.06;5089861;28;20420;-66
2021/05/17 02:25:31;;;;;;;3.00;0.80;;;;;;;11.21;69.20;95524.19;5075446;28;20449;-67
2021/05/17 02:27:57;;;;;;;1.07;0.70;;;;;;;11.22;69.01;95525.81;5080459;28;20498;-67
2021/05/17 02:30:24;;;;;;;1.10;0.60;;;;;;;11.41;68.58;95533.94;5090108;28;20423;-68
2021/05/17 02:32:50;;;;;;;1.17;0.70;;;;;;;11.36;68.42;95525.84;5090686;28;20455;-66
2021/05/17 02:35:18;;;;;;;1.60;0.80;;;;;;;11.11;68.37;95534.25;5090570;28;20427;-70
2021/05/17 02:37:44;;;;;;;1.70;0.90;;;;;;;11.35;68.38;95535.53;5057470;28;20472;-69
2021/05/17 02:40:10;;;;;;;6.67;0.90;;;;;;;11.36;68.38;95542.41;5087489;28;20818;-69
2021/05/17 02:42:36;;;;;;;1.13;0.70;;;;;;;11.28;67.98;95536.53;5097078;28;20563;-67
2021/05/17 02:45:06;;;;;;;2.90;0.80;;;;;;;11.53;67.02;95532.34;5097716;28;20427;-68
2021/05/17 02:47:35;;;;;;;4.70;1.00;;;;;;;11.49;67.34;95544.25;5095906;28;20500;-68
2021/05/17 02:50:01;;;;;;;1.30;0.70;;;;;;;11.33;67.30;95534.94;5095796;28;20455;-67
2021/05/17 02:52:31;;;;;;;6.10;0.70;;;;;;;11.24;68.13;95543.16;5067505;28;20421;-68
2021/05/17 02:55:08;;;;;;;2.63;0.70;;;;;;;11.50;67.19;95553.72;5088545;28;20442;-68
2021/05/17 02:57:49;;;;;;;2.17;0.70;;;;;;;11.31;67.59;95562.38;5094243;28;20474;-68
2021/05/17 03:00:17;;;;;;;1.63;0.60;;;;;;;11.44;67.14;95564.22;5093807;28;20423;-67
2021/05/17 03:02:51;;;;;;;1.10;0.70;;;;;;;11.49;67.02;95570.47;5095000;28;20423;-68
2021/05/17 03:05:17;;;;;;;1.77;0.70;;;;;;;11.71;66.11;95565.09;5075113;28;20423;-68
2021/05/17 03:07:47;;;;;;;2.20;0.80;;;;;;;11.73;66.03;95560.44;5094953;28;20423;-68
2021/05/17 03:10:14;;;;;;;3.90;0.80;;;;;;;11.79;65.83;95570.16;5092714;28;20421;-69
2021/05/17 03:12:40;;;;;;;3.17;0.80;;;;;;;11.84;66.29;95575.59;5095005;28;20455;-67
2021/05/17 03:15:07;;;;;;;1.17;0.87;;;;;;;11.90;66.20;95573.19;5094262;28;20605;-68
2021/05/17 03:17:32;;;;;;;2.80;1.00;;;;;;;11.72;67.43;95571.13;5094902;28;20186;-69
2021/05/17 03:19:58;;;;;;;1.00;0.67;;;;;;;11.89;66.47;95577.63;5081924;28;20502;-69
2021/05/17 03:22:24;;;;;;;3.30;0.90;;;;;;;11.95;66.45;95581.28;5078414;28;20243;-68
2021/05/17 03:24:52;;;;;;;1.73;0.80;;;;;;;11.78;66.59;95573.78;5085537;28;20179;-68
2021/05/17 03:27:26;;;;;;;2.53;0.90;;;;;;;11.79;67.29;95574.56;5092998;28;20441;-67
2021/05/17 03:29:52;;;;;;;1.80;0.80;;;;;;;11.95;66.76;95576.03;5053527;28;20534;-67
2021/05/17 03:32:18;;;;;;;1.47;0.90;;;;;;;11.86;66.89;95572.78;5076647;28;20953;-67
2021/05/17 03:34:43;;;;;;;2.13;0.80;;;;;;;11.98;66.42;95580.88;5079041;28;20233;-68
2021/05/17 03:37:09;;;;;;;1.47;0.83;;;;;;;12.00;66.38;95573.63;5073927;28;20461;-68
2021/05/17 03:39:36;;;;;;;2.20;0.70;;;;;;;12.01;66.36;95579.69;5074040;28;20728;-68
2021/05/17 03:42:01;;;;;;;1.63;0.80;;;;;;;11.74;66.82;95583.03;5082002;28;20452;-67
2021/05/17 03:44:27;;;;;;;2.90;1.17;;;;;;;11.93;66.84;95586.72;5073763;28;20448;-68
2021/05/17 03:46:53;;;;;;;1.33;0.60;;;;;;;11.98;66.25;95591.38;5073715;28;20190;-67
2021/05/17 03:49:19;;;;;;;1.20;0.87;;;;;;;11.97;66.53;95589.75;5073722;28;20455;-67
2021/05/17 03:51:44;;;;;;;1.97;0.90;;;;;;;11.80;67.16;95598.00;5073751;28;20277;-68
2021/05/17 03:54:10;;;;;;;2.60;1.00;;;;;;;11.93;66.48;95596.41;5073618;28;20225;-69
2021/05/17 03:56:35;;;;;;;2.80;0.70;;;;;;;11.73;67.21;95599.78;5074009;28;20261;-67
2021/05/17 03:59:01;;;;;;;7.27;0.77;;;;;;;11.69;67.40;95606.47;5073901;28;20233;-68
2021/05/17 04:01:27;;;;;;;4.77;1.10;;;;;;;11.84;66.79;95601.03;5067816;28;20183;-69
2021/05/17 04:03:54;;;;;;;1.30;0.70;;;;;;;11.82;66.70;95609.13;5076114;28;20421;-69
2021/05/17 04:14:32;;;;;;;2.23;0.90;;;;;;;11.61;67.39;95619.75;5073498;28;20609;-67
2021/05/17 04:16:58;;;;;;;2.20;0.97;;;;;;;11.76;67.20;95623.03;5073470;28;20504;-69
2021/05/17 04:19:26;;;;;;;3.27;1.00;;;;;;;11.77;66.70;95614.16;5073110;28;20244;-68
2021/05/17 04:21:52;;;;;;;1.00;0.70;;;;;;;11.80;66.71;95618.19;5073302;28;20192;-70
2021/05/17 04:24:18;;;;;;;2.60;0.80;;;;;;;11.75;66.77;95628.47;5076080;28;20862;-69
2021/05/17 04:26:43;;;;;;;3.20;0.90;;;;;;;11.78;66.52;95623.63;5079081;28;20722;-69
2021/05/17 04:29:09;;;;;;;1.73;0.93;;;;;;;11.78;66.51;95618.38;5072398;28;20703;-69
2021/05/17 04:31:34;;;;;;;1.67;0.80;;;;;;;11.86;66.36;95627.06;5069489;28;20190;-69
2021/05/17 04:34:00;;;;;;;2.50;1.30;;;;;;;12.02;65.81;95626.75;5075126;28;20574;-68
2021/05/17 04:36:28;;;;;;;2.93;0.80;;;;;;;11.89;65.58;95624.88;5072909;28;20276;-68
2021/05/17 04:38:53;;;;;;;2.23;1.07;;;;;;;11.90;65.46;95623.06;5071526;28;20206;-69
2021/05/17 04:41:19;;;;;;;6.23;0.90;;;;;;;11.19;68.27;95631.09;5072910;28;20754;-69
2021/05/17 04:43:44;;;;;;;2.03;1.20;;;;;;;11.48;66.49;95634.44;5072658;28;20179;-68
2021/05/17 04:46:10;;;;;;;4.80;1.27;;;;;;;11.42;66.80;95631.78;5072686;28;20615;-69
2021/05/17 04:48:35;;;;;;;3.27;0.80;;;;;;;11.69;65.43;95624.84;5072865;28;20627;-68
2021/05/17 04:51:01;;;;;;;4.53;1.00;;;;;;;11.32;66.40;95632.16;5072602;28;20179;-69
2021/05/17 04:53:27;;;;;;;1.83;0.70;;;;;;;11.80;64.74;95637.38;5072089;28;20202;-68
2021/05/17 04:55:52;;;;;;;6.93;0.80;;;;;;;11.71;64.99;95638.56;5072443;28;20179;-68
2021/05/17 04:58:18;;;;;;;2.63;0.90;;;;;;;12.00;64.08;95639.25;5086431;28;20281;-69
2021/05/17 05:00:43;;;;;;;2.60;0.73;;;;;;;11.44;65.19;95638.47;5070618;28;20190;-68
2021/05/17 05:03:09;;;;;;;2.70;0.90;;;;;;;11.75;64.15;95660.78;5071698;28;20590;-68
2021/05/17 05:05:34;;;;;;;3.20;1.10;;;;;;;11.44;65.35;95659.47;5072318;28;20588;-69
2021/05/17 05:08:00;;;;;;;1.97;1.00;;;;;;;11.81;63.76;95659.16;5071997;28;20319;-68
2021/05/17 05:10:25;;;;;;;1.27;0.70;;;;;;;10.95;64.66;95670.91;5073491;28;20220;-68
2021/05/17 05:12:51;;;;;;;1.73;0.80;;;;;;;11.21;64.62;95663.16;5073580;28;20198;-68
2021/05/17 05:15:16;;;;;;;0.90;0.70;;;;;;;11.67;63.22;95653.09;5079470;28;20182;-69
2021/05/17 05:17:42;;;;;;;1.10;0.80;;;;;;;11.66;62.51;95664.59;5072259;28;20213;-69
2021/05/17 05:20:08;;;;;;;2.23;0.80;;;;;;;11.61;62.84;95656.47;5071846;28;20271;-68
2021/05/17 05:22:35;;;;;;;1.60;0.80;;;;;;;11.42;63.02;95653.59;5072043;28;20193;-68
2021/05/17 05:25:00;;;;;;;1.67;0.70;;;;;;;12.32;60.35;95657.06;5079797;28;20458;-68
2021/05/17 05:27:45;;;;;;;1.57;0.60;;;;;;;11.89;61.92;95658.19;5075392;28;20440;-68
2021/05/17 05:32:48;;;;;;;2.23;0.60;;;;;;;11.48;61.85;95652.81;5071766;28;20511;-68
2021/05/17 05:35:13;;;;;;;3.73;0.87;;;;;;;12.16;60.60;95666.94;5071280;28;20794;-69
2021/05/17 05:37:39;;;;;;;1.40;0.87;;;;;;;12.05;60.63;95657.84;5071657;28;20444;-69
2021/05/17 05:40:08;;;;;;;1.67;0.70;;;;;;;11.76;61.21;95654.50;5079897;28;20648;-69
2021/05/17 05:42:38;;;;;;;1.00;0.57;;;;;;;11.99;60.50;95663.88;5075047;28;20192;-69
2021/05/17 05:45:09;;;;;;;3.97;1.20;;;;;;;12.22;60.36;95660.91;5090216;28;20427;-70
2021/05/17 05:47:35;;;;;;;4.73;0.67;;;;;;;12.99;57.77;95655.22;5077439;28;20421;-68
2021/05/17 05:50:01;;;;;;;0.90;0.60;;;;;;;12.26;60.47;95667.38;5087418;28;20451;-70
2021/05/17 05:52:26;;;;;;;0.80;0.60;;;;;;;12.68;58.46;95672.44;5077402;28;20558;-70
2021/05/17 05:54:52;;;;;;;0.80;0.50;;;;;;;12.37;59.71;95675.69;5091632;28;20634;-70
2021/05/17 05:57:18;;;;;;;2.53;1.20;;;;;;;13.23;57.45;95674.00;5091637;28;20246;-70
2021/05/17 05:59:44;;;;;;;2.17;0.80;;;;;;;13.80;57.57;95673.41;5091756;28;20214;-70
2021/05/17 06:02:09;;;;;;;2.40;0.70;;;;;;;14.03;54.95;95669.44;5091820;28;20447;-70
2021/05/17 06:04:35;;;;;;;0.90;0.60;;;;;;;13.91;54.46;95678.00;5091946;28;20285;-70
2021/05/17 06:07:01;;;;;;;2.63;0.90;;;;;;;13.89;58.77;95687.94;5084167;28;20181;-69
2021/05/17 06:09:27;;;;;;;1.63;0.67;;;;;;;14.13;54.20;95677.66;5079731;28;20247;-70
2021/05/17 06:11:55;;;;;;;1.07;0.60;;;;;;;14.43;52.91;95690.25;5083870;28;20178;-68
2021/05/17 06:14:22;;;;;;;1.80;0.73;;;;;;;14.26;56.11;95682.84;5083681;28;20258;-70
2021/05/17 06:16:48;;;;;;;2.70;0.70;;;;;;;14.26;52.95;95690.75;5081141;28;20421;-71
2021/05/17 06:19:14;;;;;;;1.07;0.57;;;;;;;13.63;54.82;95697.56;5077547;28;20450;-70
2021/05/17 06:21:40;;;;;;;1.90;0.60;;;;;;;13.08;56.74;95695.25;5086285;28;20189;-67
2021/05/17 06:24:06;;;;;;;1.37;0.67;;;;;;;13.12;56.79;95695.63;5094697;28;20432;-68
2021/05/17 06:26:33;;;;;;;2.50;0.70;;;;;;;13.30;55.70;95697.63;5095063;28;20190;-67
2021/05/17 06:28:59;;;;;;;1.47;0.70;;;;;;;12.97;57.44;95696.69;5089240;28;20451;-68
2021/05/17 06:31:25;;;;;;;1.53;0.70;;;;;;;12.08;59.24;95696.84;5098625;28;20443;-68
2021/05/17 06:33:52;;;;;;;1.43;0.80;;;;;;;12.97;57.64;95694.06;5099226;28;20698;-68
2021/05/17 06:36:18;;;;;;;1.93;0.60;;;;;;;12.63;58.38;95703.78;5101330;28;20192;-69
2021/05/17 06:38:44;;;;;;;1.60;0.70;;;;;;;13.47;56.80;95716.47;5094879;28;20476;-70
2021/05/17 06:41:10;;;;;;;1.77;1.10;;;;;;;13.03;59.73;95711.66;5091504;28;20216;-70
2021/05/17 06:43:36;;;;;;;1.27;0.60;;;;;;;12.42;61.52;95712.63;5086804;28;20416;-71
2021/05/17 06:46:04;;;;;;;2.33;0.83;;;;;;;12.31;62.09;95715.88;5081465;28;20991;-69
2021/05/17 06:48:29;;;;;;;1.40;0.80;;;;;;;12.23;62.65;95735.25;5088857;28;20522;-70
2021/05/17 06:50:55;;;;;;;1.40;0.70;;;;;;;12.71;61.98;95737.75;5106504;28;20462;-70
2021/05/17 06:53:22;;;;;;;1.00;0.60;;;;;;;11.91;64.00;95737.53;5096363;28;20205;-69
2021/05/17 06:56:04;;;;;;;2.97;0.80;;;;;;;12.52;63.26;95747.25;5091901;28;20531;-69
2021/05/17 07:01:15;;;;;;;2.07;0.77;;;;;;;12.31;63.50;95747.38;5090726;28;20427;-70
2021/05/17 07:03:41;;;;;;;1.20;0.70;;;;;;;12.14;64.38;95743.31;5089508;28;20814;-68
2021/05/17 07:06:09;;;;;;;3.00;0.67;;;;;;;11.59;66.12;95747.72;5093204;28;20428;-70
2021/05/17 07:11:39;;;;;;;8.83;0.80;;;;;;;11.86;66.37;95753.06;5096701;28;20445;-69
2021/05/17 07:14:04;;;;;;;1.33;0.60;;;;;;;12.14;65.23;95753.81;5091908;28;20538;-68
2021/05/17 07:16:30;;;;;;;1.73;0.70;;;;;;;12.51;64.22;95753.50;5083205;28;20954;-69
2021/05/17 07:18:56;;;;;;;1.67;0.70;;;;;;;11.88;64.99;95745.81;5091791;28;20205;-71
2021/05/17 07:23:47;;;;;;;2.17;0.80;;;;;;;12.47;63.14;95760.16;5091740;28;20539;-69
2021/05/17 07:26:18;;;;;;;1.83;0.80;;;;;;;11.96;63.23;95762.22;5085502;28;20217;-70
2021/05/17 07:28:46;;;;;;;2.50;0.90;;;;;;;12.08;62.40;95770.38;5088922;28;20251;-71
2021/05/17 07:31:12;;;;;;;1.93;0.77;;;;;;;12.48;61.37;95767.03;5095797;28;20427;-70
2021/05/17 07:33:38;;;;;;;1.73;0.70;;;;;;;13.58;57.35;95760.56;5095017;28;20961;-69
2021/05/17 07:36:05;;;;;;;1.30;0.60;;;;;;;12.79;58.95;95762.22;5094636;28;20642;-69
2021/05/17 07:38:32;;;;;;;1.20;0.80;;;;;;;13.04;56.10;95767.69;5086300;28;20449;-67
2021/05/17 07:41:00;;;;;;;1.57;0.80;;;;;;;13.48;55.55;95766.25;5088206;28;20495;-72
2021/05/17 07:43:26;;;;;;;1.73;1.30;;;;;;;13.76;54.67;95770.44;5094180;28;20438;-69
2021/05/17 07:45:52;;;;;;;1.93;0.80;;;;;;;13.71;55.41;95761.53;5085663;28;20502;-70
2021/05/17 07:48:18;;;;;;;2.13;0.77;;;;;;;13.75;54.19;95773.25;5093212;28;20436;-70
2021/05/17 07:50:44;;;;;;;0.83;0.50;;;;;;;14.02;53.60;95775.78;5094315;28;20431;-71
2021/05/17 07:53:13;;;;;;;3.60;0.67;;;;;;;13.83;53.82;95770.41;5086233;28;20478;-70
2021/05/17 07:55:40;;;;;;;1.00;0.67;;;;;;;13.98;53.49;95772.78;5094983;28;20601;-70
2021/05/17 07:58:05;;;;;;;1.60;0.70;;;;;;;14.13;53.61;95777.78;5092970;28;20434;-71
2021/05/17 08:00:31;;;;;;;1.20;0.70;;;;;;;13.71;54.07;95787.88;5088030;28;20428;-70
2021/05/17 08:02:57;;;;;;;1.20;0.60;;;;;;;13.53;54.65;95781.41;5094385;28;20190;-68
2021/05/17 08:05:22;;;;;;;1.63;0.60;;;;;;;13.80;53.83;95787.41;5094840;28;20546;-69
2021/05/17 08:07:48;;;;;;;0.80;0.50;;;;;;;14.27;52.64;95776.69;5091477;28;20182;-68
2021/05/17 08:10:14;;;;;;;1.10;0.70;;;;;;;13.64;52.95;95783.41;5081398;28;20695;-70
2021/05/17 08:12:41;;;;;;;1.77;0.67;;;;;;;14.24;51.16;95779.75;5095183;28;20186;-70
2021/05/17 08:15:07;;;;;;;1.03;0.60;;;;;;;14.47;50.80;95781.06;5092440;28;20431;-69
2021/05/17 08:17:33;;;;;;;3.10;0.70;;;;;;;15.23;50.01;95780.34;5094101;28;20424;-69
2021/05/17 08:20:00;;;;;;;2.40;0.93;;;;;;;15.08;50.82;95780.66;5094152;28;20624;-69
2021/05/17 08:22:26;;;;;;;2.87;0.60;;;;;;;14.88;50.81;95774.53;5089217;28;20190;-71
2021/05/17 08:24:54;;;;;;;0.90;0.50;;;;;;;15.39;49.27;95776.34;5080849;28;20427;-70
2021/05/17 08:27:19;;;;;;;1.00;0.70;;;;;;;14.38;50.76;95777.88;5085352;28;20201;-71
2021/05/17 08:29:45;;;;;;;2.40;0.80;;;;;;;15.19;48.96;95778.13;5088942;28;20479;-70
2021/05/17 08:32:10;;;;;;;2.30;0.67;;;;;;;14.76;49.97;95784.13;5092326;28;20181;-70
2021/05/17 08:34:37;;;;;;;2.00;0.63;;;;;;;14.57;50.67;95785.84;5093082;28;20571;-69
2021/05/17 08:37:03;;;;;;;2.80;0.70;;;;;;;14.72;49.71;95785.59;5093397;28;20181;-70
2021/05/17 08:39:29;;;;;;;6.67;1.10;;;;;;;14.84;48.58;95791.00;5080599;28;20501;-69
2021/05/17 08:41:58;;;;;;;2.50;0.77;;;;;;;14.34;50.09;95789.84;5090245;28;20474;-72
2021/05/17 08:44:25;;;;;;;2.70;1.83;;;;;;;14.38;50.04;95782.31;5088362;28;20538;-68
2021/05/17 08:46:50;;;;;;;1.30;0.50;;;;;;;14.80;49.57;95793.25;5089657;28;20472;-70
2021/05/17 08:49:17;;;;;;;2.57;1.00;;;;;;;14.65;50.56;95790.06;5093892;28;20438;-70
2021/05/17 08:51:43;;;;;;;1.20;0.80;;;;;;;14.00;52.21;95791.81;5092672;28;20551;-70
2021/05/17 08:54:09;;;;;;;2.43;0.80;;;;;;;14.32;52.34;95798.97;5095058;28;20462;-70
2021/05/17 08:56:39;;;;;;;3.33;0.70;;;;;;;14.06;53.33;95798.06;5091628;28;20910;-68
2021/05/17 08:59:05;;;;;;;1.80;0.90;;;;;;;14.41;52.60;95808.25;5099055;28;20507;-71
2021/05/17 09:01:32;;;;;;;2.20;0.63;;;;;;;13.90;53.20;95805.41;5084978;28;20440;-70
2021/05/17 09:04:06;;;;;;;1.10;0.63;;;;;;;14.11;53.48;95809.59;5095529;28;20432;-69
2021/05/17 09:06:54;;;;;;;2.17;0.80;;;;;;;14.88;51.87;95800.91;5083379;28;20424;-70
2021/05/17 09:09:32;;;;;;;2.23;0.80;;;;;;;14.64;52.03;95799.00;5068724;28;20907;-71
2021/05/17 09:11:59;;;;;;;4.70;0.80;;;;;;;14.52;52.19;95807.59;5083470;28;20423;-70
2021/05/17 09:14:26;;;;;;;4.10;0.90;;;;;;;15.25;50.64;95802.06;5092800;28;20459;-68
2021/05/17 09:17:06;;;;;;;1.87;0.73;;;;;;;15.77;49.44;95794.63;5094748;28;20424;-70
2021/05/17 09:19:32;;;;;;;2.13;0.93;;;;;;;15.81;48.74;95785.25;5084561;28;20447;-69
2021/05/17 09:21:58;;;;;;;5.47;1.00;;;;;;;15.07;50.78;95795.69;5091619;28;20840;-70
2021/05/17 09:24:46;;;;;;;1.67;0.80;;;;;;;15.25;49.99;95794.16;5092117;28;20412;-70
2021/05/17 09:27:17;;;;;;;1.07;0.70;;;;;;;15.48;48.85;95775.84;5093825;28;20224;-69
2021/05/17 09:29:45;;;;;;;2.03;0.70;;;;;;;14.98;50.19;95802.25;5088243;28;20801;-71
2021/05/17 09:32:22;;;;;;;2.43;0.90;;;;;;;15.46;48.46;95787.63;5093046;28;20416;-70
2021/05/17 09:34:59;;;;;;;6.93;1.07;;;;;;;15.06;49.58;95796.72;5092079;28;20462;-69
2021/05/17 09:37:26;;;;;;;2.53;0.70;;;;;;;15.35;48.76;95791.81;5077316;28;20433;-70
2021/05/17 09:39:52;;;;;;;2.17;1.00;;;;;;;15.09;49.86;95804.22;5072446;28;20448;-69
2021/05/17 09:42:20;;;;;;;1.70;0.50;;;;;;;15.90;49.39;95806.13;5092106;28;20424;-69
2021/05/17 09:44:46;;;;;;;0.93;0.60;;;;;;;16.06;49.97;95802.88;5091887;28;20534;-70
2021/05/17 09:47:16;;;;;;;1.30;0.90;;;;;;;16.02;49.86;95808.84;5083312;28;20464;-70
2021/05/17 09:49:53;;;;;;;1.70;1.00;;;;;;;15.80;49.94;95803.97;5084852;28;20206;-70
2021/05/17 09:52:25;;;;;;;3.40;0.80;;;;;;;14.83;52.40;95806.00;5090520;28;20439;-71
2021/05/17 09:54:52;;;;;;;2.50;0.80;;;;;;;15.76;50.22;95797.50;5090037;28;20451;-68
2021/05/17 09:57:25;;;;;;;2.13;0.60;;;;;;;15.96;50.66;95797.31;5092070;28;20424;-69
2021/05/17 09:59:53;;;;;;;3.90;0.70;;;;;;;15.62;50.51;95795.00;5091650;28;20450;-68
2021/05/17 10:02:37;;;;;;;2.10;0.70;;;;;;;15.44;50.85;95798.44;5091627;28;20483;-68
2021/05/17 10:05:27;;;;;;;1.20;0.60;;;;;;;15.06;50.46;95796.72;5089218;28;20442;-72
2021/05/17 10:07:59;;;;;;;1.80;0.70;;;;;;;14.89;50.59;95797.22;5076194;28;20424;-72
2021/05/17 10:10:27;;;;;;;2.00;0.83;;;;;;;14.64;50.81;95799.00;5078461;28;20506;-71
2021/05/17 10:12:55;;;;;;;0.90;0.60;;;;;;;15.05;50.30;95792.47;5092605;28;20428;-69
2021/05/17 10:15:22;;;;;;;2.37;0.80;;;;;;;15.19;49.78;95790.50;5075933;28;20454;-70
2021/05/17 10:17:47;;;;;;;1.50;0.90;;;;;;;15.50;49.59;95773.78;5092147;28;20419;-69
2021/05/17 10:20:18;;;;;;;11.00;1.30;;;;;;;16.17;48.37;95785.50;5089939;28;20450;-71
2021/05/17 10:22:44;;;;;;;2.43;1.13;;;;;;;15.51;50.80;95785.16;5091216;28;20613;-71
2021/05/17 10:25:13;;;;;;;1.13;0.73;;;;;;;16.09;49.62;95783.97;5081657;28;20425;-70
2021/05/17 10:27:50;;;;;;;1.67;0.80;;;;;;;15.77;50.50;95793.84;5095559;28;20448;-69
2021/05/17 10:30:21;;;;;;;4.80;0.70;;;;;;;15.54;55.67;95800.56;5095569;28;20969;-71
2021/05/17 10:32:53;;;;;;;3.33;0.80;;;;;;;15.21;56.50;95801.66;5096855;28;20614;-69
2021/05/17 10:35:22;;;;;;;1.57;0.90;;;;;;;14.65;58.17;95813.78;5090383;28;20500;-71
2021/05/17 10:37:48;;;;;;;2.93;0.90;;;;;;;15.08;57.83;95810.50;5091680;28;20420;-69
2021/05/17 10:40:38;;;;;;;1.53;0.70;;;;;;;14.26;59.04;95806.69;5079969;28;20443;-70
2021/05/17 10:43:11;;;;;;;1.30;0.70;;;;;;;14.93;58.62;95807.38;5083656;28;20189;-69
2021/05/17 10:48:34;;;;;;;2.30;0.93;;;;;;;15.60;56.48;95789.13;5090924;28;20960;-69
2021/05/17 10:51:19;;;;;;;2.40;1.07;;;;;;;15.72;56.20;95801.59;5091334;28;20416;-70
2021/05/17 10:53:58;;;;;;;4.03;0.80;;;;;;;16.05;53.65;95795.19;5085546;28;20612;-69
2021/05/17 10:56:49;;;;;;;2.87;0.80;;;;;;;15.38;53.87;95787.94;5070087;28;20500;-68
2021/05/17 11:02:11;;;;;;;1.60;0.70;;;;;;;15.90;52.37;95814.88;5097675;28;20428;-70
2021/05/17 11:04:39;;;;;;;1.53;0.60;;;;;;;16.17;52.55;95805.81;5089798;28;20435;-70
2021/05/17 11:07:25;;;;;;;2.23;0.90;;;;;;;15.77;53.43;95804.41;5100257;28;20424;-70
2021/05/17 11:09:51;;;;;;;1.40;0.87;;;;;;;16.82;50.26;95799.06;5082883;28;20443;-71
2021/05/17 11:12:26;;;;;;;3.57;1.20;;;;;;;15.94;50.76;95804.66;5091285;28;20428;-71
2021/05/17 11:15:06;;;;;;;3.07;1.03;;;;;;;16.10;50.86;95800.59;5103140;28;20564;-70
2021/05/17 11:17:51;;;;;;;1.50;0.70;;;;;;;15.88;51.18;95810.84;5095898;28;20431;-70
2021/05/17 11:20:42;;;;;;;3.00;0.90;;;;;;;15.61;51.56;95801.31;5105160;28;20467;-71
2021/05/17 11:23:12;;;;;;;1.30;0.70;;;;;;;16.28;49.58;95799.78;5092126;28;20436;-70
2021/05/17 11:25:48;;;;;;;5.00;1.10;;;;;;;16.06;49.91;95799.44;5092926;28;20458;-69
2021/05/17 11:28:14;;;;;;;2.50;0.80;;;;;;;16.47;50.34;95802.41;5097116;28;20455;-70
2021/05/17 11:30:42;;;;;;;2.97;0.77;;;;;;;16.13;50.48;95808.88;5101181;28;20432;-70
2021/05/17 11:33:15;;;;;;;2.67;1.20;;;;;;;15.76;52.05;95808.06;5102631;28;20463;-71
2021/05/17 11:36:21;;;;;;;1.73;1.00;;;;;;;15.52;52.06;95816.63;5101309;28;20747;-73
2021/05/17 11:39:17;;;;;;;1.57;0.83;;;;;;;15.35;54.07;95820.84;5082525;28;20455;-68
2021/05/17 11:41:47;;;;;;;4.90;3.70;;;;;;;15.48;54.17;95815.44;5093619;28;20439;-70
2021/05/17 11:44:17;;;;;;;2.80;1.53;;;;;;;15.74;53.11;95812.75;5094211;28;20485;-69
2021/05/17 11:46:47;;;;;;;1.17;0.63;;;;;;;14.72;52.87;95825.16;5101936;28;20498;-69
2021/05/17 11:49:21;;;;;;;3.80;0.70;;;;;;;15.19;51.72;95812.44;5085188;28;20436;-70
2021/05/17 11:51:49;;;;;;;1.10;0.60;;;;;;;14.98;51.86;95820.72;5085202;28;20430;-69
2021/05/17 11:54:15;;;;;;;1.00;0.70;;;;;;;15.50;49.52;95800.19;5102621;28;20459;-70
2021/05/17 11:56:49;;;;;;;2.10;0.97;;;;;;;14.73;51.05;95805.69;5093211;28;20435;-70
2021/05/17 11:59:21;;;;;;;6.47;0.60;;;;;;;15.08;50.08;95810.50;5101599;28;20981;-70
2021/05/17 12:01:51;;;;;;;1.10;0.50;;;;;;;15.85;48.08;95798.06;5086694;28;20426;-69
2021/05/17 12:04:23;;;;;;;0.90;0.50;;;;;;;16.43;45.55;95797.56;5100418;28;20416;-69